Time;durP1;ratioP1;P1;durP2;ratioP2;P2;SDS_P1;SDS_P2;PMS_P1;PMS_P2;Temp;Humidity;BMP_temperature;BMP_pressure;BME280_temperature;BME280_humidity;BME280_pressure;Samples;Min_cycle;Max_cycle;Signal;HPM_P1;HPM_P2
2023/08/19 07:43:39;;;;;;;10.87;4.20;;;24.70;99.90;;;;;;4633451;27;20229;-49
2023/08/19 07:46:05;;;;;;;13.87;4.10;;;24.80;99.90;;;;;;4808986;29;20634;-44
2023/08/19 07:48:31;;;;;;;10.87;3.60;;;24.80;99.90;;;;;;4807375;29;20235;-44
2023/08/19 07:50:57;;;;;;;7.53;4.10;;;24.80;99.90;;;;;;4790638;29;20193;-44
2023/08/19 07:53:24;;;;;;;9.53;3.93;;;24.80;99.90;;;;;;4807247;29;20189;-45
2023/08/19 07:55:51;;;;;;;10.40;4.00;;;24.80;99.90;;;;;;4806760;29;20673;-43
2023/08/19 07:58:26;;;;;;;7.47;4.03;;;24.90;99.90;;;;;;4807411;29;20205;-44
2023/08/19 08:00:58;;;;;;;7.23;3.90;;;25.00;99.90;;;;;;4776888;29;20233;-44
2023/08/19 08:03:27;;;;;;;10.77;4.20;;;25.10;99.90;;;;;;4806825;29;20178;-45
2023/08/19 08:05:57;;;;;;;7.13;4.20;;;25.30;99.90;;;;;;4807231;29;20197;-43
2023/08/19 08:08:23;;;;;;;9.77;3.93;;;25.40;99.90;;;;;;4775998;29;20324;-44
2023/08/19 08:10:53;;;;;;;18.60;4.37;;;25.60;99.90;;;;;;4791230;29;20208;-43
2023/08/19 08:13:19;;;;;;;7.17;3.93;;;25.70;99.90;;;;;;4790355;29;20209;-43
2023/08/19 08:15:45;;;;;;;5.20;3.40;;;25.80;99.90;;;;;;4775391;29;20192;-45
2023/08/19 08:18:31;;;;;;;10.40;3.60;;;25.90;99.90;;;;;;4807035;29;20203;-43
2023/08/19 08:21:03;;;;;;;12.30;3.93;;;26.10;99.90;;;;;;4805807;29;20193;-45
2023/08/19 08:23:30;;;;;;;11.20;3.93;;;26.20;99.90;;;;;;4791401;29;20181;-44
2023/08/19 08:26:00;;;;;;;12.30;4.23;;;26.40;99.90;;;;;;4790335;29;20204;-45
2023/08/19 08:28:27;;;;;;;5.83;3.80;;;26.60;99.90;;;;;;4790500;29;20273;-49
2023/08/19 08:30:54;;;;;;;6.27;3.60;;;26.70;99.90;;;;;;4806524;29;20193;-50
2023/08/19 08:34:03;;;;;;;6.43;3.70;;;26.80;99.90;;;;;;4807440;29;20704;-50
2023/08/19 08:36:39;;;;;;;8.13;3.50;;;27.00;99.90;;;;;;4806753;29;20694;-52
2023/08/19 08:39:15;;;;;;;7.00;3.50;;;27.20;99.90;;;;;;4807334;29;20197;-50
2023/08/19 08:41:50;;;;;;;4.40;3.67;;;27.40;99.90;;;;;;4779965;29;20212;-50
2023/08/19 08:44:17;;;;;;;8.37;3.63;;;27.50;99.90;;;;;;4779997;29;20314;-51
2023/08/19 09:49:28;;;;;;;5.07;3.93;;;29.80;99.90;;;;;;4791726;29;20702;-46
2023/08/19 09:52:00;;;;;;;8.33;4.80;;;29.80;99.90;;;;;;4788521;29;20686;-45
2023/08/19 09:54:27;;;;;;;4.23;3.83;;;29.80;99.90;;;;;;4793476;29;20182;-46
2023/08/19 09:56:57;;;;;;;8.17;4.23;;;29.80;99.90;;;;;;4777545;29;20216;-44
2023/08/19 10:02:39;;;;;;;9.27;4.20;;;29.60;99.90;;;;;;4787237;29;20250;-45
2023/08/19 10:05:07;;;;;;;6.03;4.30;;;29.40;99.90;;;;;;4808745;29;20180;-45
2023/08/19 10:07:33;;;;;;;8.13;4.40;;;29.30;99.90;;;;;;4792122;29;20216;-46
2023/08/19 10:10:10;;;;;;;10.93;4.73;;;29.10;99.90;;;;;;4792260;29;20286;-46
2023/08/19 10:12:41;;;;;;;7.23;4.50;;;29.00;99.90;;;;;;4778520;29;20197;-46
2023/08/19 10:15:12;;;;;;;5.50;4.17;;;28.90;99.90;;;;;;4792294;29;20266;-46
2023/08/19 10:17:44;;;;;;;7.43;4.97;;;28.80;99.90;;;;;;4792327;29;20220;-45
2023/08/19 10:24:32;;;;;;;9.30;4.60;;;28.70;99.90;;;;;;4808983;29;20204;-45
2023/08/19 10:27:29;;;;;;;7.10;4.60;;;28.70;99.90;;;;;;4809008;29;20693;-46
2023/08/19 10:30:31;;;;;;;6.33;4.73;;;28.80;99.90;;;;;;4791665;29;20201;-46
2023/08/19 10:33:05;;;;;;;9.53;5.10;;;28.90;99.90;;;;;;4792786;29;20193;-50
2023/08/19 10:35:57;;;;;;;7.97;4.63;;;28.90;99.90;;;;;;4792970;29;20196;-45
2023/08/19 10:38:24;;;;;;;8.83;4.47;;;28.90;99.90;;;;;;4793025;29;20609;-45
2023/08/19 10:41:02;;;;;;;8.70;5.00;;;28.90;99.90;;;;;;4808950;29;20189;-50
2023/08/19 12:22:26;;;;;;;10.30;6.43;;;28.70;99.90;;;;;;1410991;27;20231;-53
2023/08/19 12:36:26;;;;;;;9.82;7.03;;;28.50;99.90;;;;;;5597016;22;14772658;-48
2023/08/19 12:39:08;;;;;;;12.55;6.45;;;27.80;99.90;;;;;;6224850;23;20140;-49
2023/08/19 12:44:58;;;;;;;6.50;5.67;;;27.50;99.90;;;;;;6224485;23;20224;-49
2023/08/19 13:30:56;;;;;;;4.77;3.77;;;25.40;99.90;;;;;;6224569;23;20246;-47
2023/08/19 14:59:53;;;;;;;7.83;3.90;;;25.40;99.90;;;;;;6186505;23;20195;-48
2023/08/19 15:02:26;;;;;;;6.83;3.97;;;25.60;99.90;;;;;;6186817;23;20586;-48
2023/08/19 15:04:51;;;;;;;5.23;3.73;;;25.70;99.90;;;;;;6160084;23;20224;-48
2023/08/19 15:07:17;;;;;;;4.37;3.63;;;25.90;99.90;;;;;;6186520;23;20471;-50
2023/08/19 15:09:43;;;;;;;5.23;3.67;;;26.00;99.90;;;;;;6186470;23;20487;-49
2023/08/19 15:12:09;;;;;;;5.10;3.70;;;26.10;99.90;;;;;;6186364;23;20176;-48
2023/08/19 15:14:34;;;;;;;4.93;4.10;;;26.20;99.90;;;;;;6159947;23;20180;-50
2023/08/19 15:17:00;;;;;;;4.50;4.10;;;26.40;99.90;;;;;;6160080;23;20167;-49
2023/08/19 15:19:26;;;;;;;6.07;3.83;;;26.50;99.90;;;;;;6160521;23;20161;-48
2023/08/19 15:21:51;;;;;;;5.80;4.30;;;26.70;99.90;;;;;;6186348;23;20184;-49
2023/08/19 15:24:17;;;;;;;6.73;4.30;;;26.90;99.90;;;;;;6186243;23;20188;-48
2023/08/19 15:26:42;;;;;;;4.87;3.97;;;27.00;99.90;;;;;;6186736;23;20173;-49
2023/08/19 15:29:08;;;;;;;8.17;4.90;;;27.10;99.90;;;;;;6186321;23;20153;-48
2023/08/19 15:31:36;;;;;;;5.77;4.47;;;27.10;99.90;;;;;;6186254;23;20161;-48
2023/08/19 15:34:03;;;;;;;6.00;4.80;;;27.20;99.90;;;;;;6186479;23;20207;-49
2023/08/19 15:36:29;;;;;;;5.30;4.63;;;27.30;99.90;;;;;;6186192;23;20181;-48
2023/08/19 15:38:55;;;;;;;7.60;3.90;;;27.30;99.90;;;;;;6187263;23;20498;-45
2023/08/19 15:41:21;;;;;;;4.90;3.80;;;27.40;99.90;;;;;;6161554;23;20161;-49
2023/08/19 15:43:50;;;;;;;4.30;3.90;;;27.40;99.90;;;;;;6187866;23;20686;-49
2023/08/19 15:46:20;;;;;;;4.33;3.93;;;27.40;99.90;;;;;;6187527;23;20184;-49
2023/08/19 15:48:46;;;;;;;4.83;3.00;;;27.40;99.90;;;;;;6160246;23;20592;-43
2023/08/19 15:51:12;;;;;;;3.73;3.43;;;27.40;99.90;;;;;;6159740;23;20158;-43
2023/08/19 15:53:39;;;;;;;4.77;4.10;;;27.40;99.90;;;;;;6159913;23;20153;-44
2023/08/19 15:56:04;;;;;;;5.80;3.57;;;27.50;99.90;;;;;;6186059;23;20176;-44
2023/08/19 15:58:30;;;;;;;7.67;4.70;;;27.50;99.90;;;;;;6159506;23;20153;-44
2023/08/19 16:00:55;;;;;;;5.10;3.57;;;27.50;99.90;;;;;;6159606;23;20179;-46
2023/08/19 16:03:21;;;;;;;4.43;3.43;;;27.50;99.90;;;;;;6159736;23;20153;-45
2023/08/19 16:05:47;;;;;;;7.00;3.70;;;27.60;99.90;;;;;;6185834;23;20289;-45
2023/08/19 16:08:13;;;;;;;8.27;3.43;;;27.70;99.90;;;;;;6186204;23;20153;-46
2023/08/19 16:10:38;;;;;;;3.40;3.07;;;27.80;99.90;;;;;;6186398;23;20152;-45
2023/08/19 16:13:04;;;;;;;7.53;3.10;;;27.90;99.90;;;;;;6186109;23;20156;-46
2023/08/19 16:15:30;;;;;;;4.10;3.00;;;27.90;99.90;;;;;;6159453;23;20520;-46
2023/08/19 16:17:56;;;;;;;3.00;2.53;;;28.00;99.90;;;;;;6186043;23;20153;-45
2023/08/19 16:20:22;;;;;;;4.20;2.80;;;28.00;99.90;;;;;;6186269;23;20153;-45
2023/08/19 16:22:48;;;;;;;3.00;2.70;;;28.00;99.90;;;;;;6159434;23;20165;-44
2023/08/19 16:25:14;;;;;;;3.30;3.00;;;28.00;99.90;;;;;;6159573;23;20195;-44
2023/08/19 16:27:39;;;;;;;4.07;2.90;;;28.00;99.90;;;;;;6186126;23;20165;-43
2023/08/19 16:30:05;;;;;;;3.30;3.00;;;28.00;99.90;;;;;;6185870;23;20517;-44
2023/08/19 16:32:31;;;;;;;3.23;2.83;;;28.00;99.90;;;;;;6186470;23;20156;-44
2023/08/19 16:34:58;;;;;;;5.40;4.20;;;28.00;99.90;;;;;;6186355;23;20187;-46
2023/08/19 16:37:23;;;;;;;4.27;2.77;;;28.10;99.90;;;;;;6185816;23;20157;-49
2023/08/19 16:39:50;;;;;;;2.93;2.30;;;28.10;99.90;;;;;;6185835;23;20184;-48
2023/08/19 16:42:17;;;;;;;2.60;1.90;;;28.10;99.90;;;;;;6186078;23;20243;-48
2023/08/19 16:44:44;;;;;;;2.40;1.87;;;28.10;99.90;;;;;;6185723;23;20681;-49
2023/08/19 16:47:10;;;;;;;2.77;1.80;;;28.10;99.90;;;;;;6185880;23;20156;-48
2023/08/19 16:49:35;;;;;;;2.25;1.90;;;28.00;99.90;;;;;;6186054;23;20157;-48
2023/08/19 16:52:02;;;;;;;2.00;1.90;;;27.90;99.90;;;;;;6186105;23;20161;-49
2023/08/19 16:54:27;;;;;;;3.50;1.70;;;27.70;99.90;;;;;;6134968;23;20187;-49
2023/08/19 16:56:53;;;;;;;2.83;2.07;;;27.60;99.90;;;;;;6185733;23;20535;-48
2023/08/19 16:59:19;;;;;;;2.27;1.90;;;27.50;99.90;;;;;;6159234;23;20272;-49
2023/08/19 17:01:45;;;;;;;2.00;1.80;;;27.50;99.90;;;;;;6186083;23;20184;-48
2023/08/19 17:04:10;;;;;;;2.53;2.10;;;27.50;99.90;;;;;;6185427;23;20578;-48
2023/08/19 17:06:36;;;;;;;2.55;1.77;;;27.40;99.90;;;;;;6185867;23;20227;-49
2023/08/19 17:09:03;;;;;;;3.00;1.90;;;27.30;99.90;;;;;;6186154;23;20476;-49
2023/08/19 17:11:28;;;;;;;2.90;1.90;;;27.30;99.90;;;;;;6160323;23;20664;-48
2023/08/19 17:13:54;;;;;;;2.20;2.00;;;27.20;99.90;;;;;;6187829;23;20184;-49
2023/08/19 17:16:19;;;;;;;2.33;2.13;;;27.20;99.90;;;;;;6187843;23;20177;-50
2023/08/19 17:18:45;;;;;;;3.40;2.00;;;27.10;99.90;;;;;;6187826;23;20159;-49
2023/08/19 17:21:10;;;;;;;4.03;2.20;;;27.00;99.90;;;;;;6187542;23;20208;-49
2023/08/19 17:23:36;;;;;;;5.23;2.00;;;26.90;99.90;;;;;;6187525;23;20281;-48
2023/08/19 17:26:02;;;;;;;2.20;2.00;;;26.90;99.90;;;;;;6161231;23;20520;-48
2023/08/19 17:28:27;;;;;;;3.77;2.23;;;26.90;99.90;;;;;;6188297;23;20153;-49
2023/08/19 17:31:03;;;;;;;4.50;2.20;;;26.80;99.90;;;;;;6187535;23;20159;-49
2023/08/19 17:33:30;;;;;;;2.70;2.03;;;26.80;99.90;;;;;;6161163;23;20165;-49
2023/08/19 17:36:00;;;;;;;2.07;1.90;;;26.70;99.90;;;;;;6160960;23;20180;-48
2023/08/19 17:38:26;;;;;;;4.97;1.70;;;26.70;99.90;;;;;;6160979;23;20188;-48
2023/08/19 17:40:59;;;;;;;2.13;1.80;;;26.70;99.90;;;;;;6161007;23;20188;-48
2023/08/19 17:43:24;;;;;;;5.00;3.23;;;26.70;99.90;;;;;;6187342;23;20164;-49
2023/08/19 17:45:54;;;;;;;4.20;2.90;;;26.60;99.90;;;;;;6187287;23;20184;-49
2023/08/19 17:48:20;;;;;;;8.90;4.57;;;26.50;99.90;;;;;;6187347;23;20156;-49
2023/08/19 17:50:46;;;;;;;8.70;5.37;;;26.50;99.90;;;;;;6160897;23;20266;-48
2023/08/19 17:53:12;;;;;;;5.53;3.20;;;26.30;99.90;;;;;;6187566;23;20157;-49
2023/08/19 17:55:38;;;;;;;2.73;2.13;;;26.20;99.90;;;;;;6187330;23;20566;-47
2023/08/19 17:58:04;;;;;;;2.30;2.10;;;26.10;99.90;;;;;;6187235;23;20167;-48
2023/08/19 18:00:30;;;;;;;9.60;6.07;;;26.10;99.90;;;;;;6160717;23;20172;-50
2023/08/19 18:02:56;;;;;;;16.90;9.73;;;26.00;99.90;;;;;;6187237;23;20160;-48
2023/08/19 18:05:21;;;;;;;20.03;13.93;;;26.00;99.90;;;;;;6187075;23;20270;-48
2023/08/19 18:07:47;;;;;;;11.03;6.97;;;25.90;99.90;;;;;;6187179;23;20260;-47
2023/08/19 18:10:12;;;;;;;11.70;8.13;;;25.90;99.90;;;;;;6187154;23;20204;-48
2023/08/19 18:12:38;;;;;;;14.13;9.80;;;25.80;99.90;;;;;;6160669;23;20496;-49
2023/08/19 18:15:04;;;;;;;14.40;10.63;;;25.70;99.90;;;;;;6187260;23;20673;-49
2023/08/19 18:17:30;;;;;;;15.63;11.47;;;25.60;99.90;;;;;;6186914;23;20513;-47
2023/08/19 18:19:55;;;;;;;33.17;20.73;;;25.50;99.90;;;;;;6185432;23;20248;-48
2023/08/19 18:22:21;;;;;;;21.57;15.53;;;25.40;99.90;;;;;;6185374;23;20169;-48
2023/08/19 18:24:47;;;;;;;36.03;26.03;;;25.40;99.90;;;;;;6160542;23;20188;-47
2023/08/19 18:27:12;;;;;;;19.50;12.23;;;25.20;99.90;;;;;;6186876;23;20153;-47
2023/08/19 18:29:38;;;;;;;38.03;27.63;;;25.20;99.90;;;;;;6185339;23;20184;-48
2023/08/19 18:32:04;;;;;;;16.97;11.07;;;25.10;99.90;;;;;;6185379;23;20195;-48
2023/08/19 18:34:32;;;;;;;10.87;6.90;;;25.10;99.90;;;;;;6186821;23;20177;-47
2023/08/19 18:36:57;;;;;;;8.17;5.27;;;25.00;99.90;;;;;;6186998;23;20608;-48
2023/08/19 18:39:23;;;;;;;6.87;3.70;;;24.90;99.90;;;;;;6187149;23;20284;-48
2023/08/19 18:41:48;;;;;;;4.43;3.00;;;24.90;99.90;;;;;;6186943;23;20205;-48
2023/08/19 18:44:15;;;;;;;3.10;2.73;;;24.80;99.90;;;;;;6186958;23;20665;-49
2023/08/19 18:46:40;;;;;;;6.97;3.10;;;24.80;99.90;;;;;;6189191;23;20622;-48
2023/08/19 18:49:06;;;;;;;4.90;2.73;;;24.80;99.90;;;;;;6186857;23;20157;-48
2023/08/19 18:51:32;;;;;;;3.87;2.60;;;24.70;99.90;;;;;;6187187;23;20153;-48
2023/08/19 18:53:57;;;;;;;4.53;2.27;;;24.70;99.90;;;;;;6186636;23;20502;-48
2023/08/19 18:56:23;;;;;;;2.80;2.30;;;24.60;99.90;;;;;;6186852;23;20153;-48
2023/08/19 18:58:49;;;;;;;6.43;2.33;;;24.60;99.90;;;;;;6186464;23;20153;-48
2023/08/19 19:01:14;;;;;;;4.67;2.47;;;24.50;99.90;;;;;;6160409;23;20165;-49
2023/08/19 19:03:40;;;;;;;3.67;2.30;;;24.50;99.90;;;;;;6186484;23;20152;-48
2023/08/19 19:06:05;;;;;;;3.23;2.37;;;24.40;99.90;;;;;;6186509;23;20630;-48
2023/08/19 19:08:31;;;;;;;3.67;2.53;;;24.40;99.90;;;;;;6160237;23;20158;-48
2023/08/19 19:10:56;;;;;;;3.53;2.37;;;24.30;99.90;;;;;;6186654;23;20180;-49
2023/08/19 19:13:22;;;;;;;4.10;2.23;;;24.20;99.90;;;;;;6186475;23;20160;-49
2023/08/19 19:15:48;;;;;;;3.67;2.10;;;24.20;99.90;;;;;;6160172;23;20185;-49
2023/08/19 19:18:13;;;;;;;5.40;3.10;;;24.00;99.90;;;;;;6160990;23;20173;-48
2023/08/19 19:20:39;;;;;;;4.30;2.90;;;24.00;99.90;;;;;;6186554;23;20157;-48
2023/08/19 19:23:04;;;;;;;4.10;2.40;;;23.90;99.90;;;;;;6186584;23;20153;-50
2023/08/19 19:25:30;;;;;;;2.93;2.27;;;23.90;99.90;;;;;;6186662;23;20195;-47
2023/08/19 19:27:56;;;;;;;3.47;2.47;;;23.80;99.90;;;;;;6186820;23;20157;-48
2023/08/19 19:30:23;;;;;;;3.87;2.40;;;23.70;99.90;;;;;;6160052;23;20161;-48
2023/08/19 19:32:49;;;;;;;7.03;2.70;;;23.70;99.90;;;;;;6186692;23;20179;-48
2023/08/19 19:35:18;;;;;;;4.17;2.50;;;23.60;99.90;;;;;;6186128;23;20181;-48
2023/08/19 19:37:44;;;;;;;3.50;2.30;;;23.60;99.90;;;;;;6186231;23;20565;-48
2023/08/19 19:40:12;;;;;;;3.07;2.30;;;23.60;99.90;;;;;;6186338;23;20655;-48
2023/08/19 19:42:38;;;;;;;2.83;2.50;;;23.60;99.90;;;;;;6159886;23;20243;-48
2023/08/19 19:45:05;;;;;;;4.80;2.50;;;23.50;99.90;;;;;;6159788;23;20197;-47
2023/08/19 19:47:36;;;;;;;3.20;2.03;;;23.50;99.90;;;;;;6187806;23;20154;-42
2023/08/19 19:50:04;;;;;;;4.37;2.40;;;23.40;99.90;;;;;;6135686;23;20149;-43
2023/08/19 19:52:30;;;;;;;2.93;2.30;;;23.30;99.90;;;;;;6159875;23;20157;-43
2023/08/19 19:54:56;;;;;;;3.17;2.50;;;23.30;99.90;;;;;;6186182;23;20175;-41
2023/08/19 19:57:21;;;;;;;4.17;2.50;;;23.20;99.90;;;;;;6186091;23;20153;-45
2023/08/19 19:59:47;;;;;;;4.80;2.37;;;23.10;99.90;;;;;;6159747;23;20181;-43
2023/08/19 20:02:13;;;;;;;4.03;2.80;;;23.10;99.90;;;;;;6159854;23;20168;-43
2023/08/19 20:04:39;;;;;;;3.77;2.30;;;23.00;99.90;;;;;;6185729;23;20220;-41
2023/08/19 20:07:06;;;;;;;3.50;2.43;;;22.90;99.90;;;;;;6159662;23;20157;-43
2023/08/19 20:09:32;;;;;;;3.83;2.30;;;22.90;99.90;;;;;;6159809;23;20161;-44
2023/08/19 20:12:00;;;;;;;3.90;2.07;;;22.80;99.90;;;;;;6159931;23;20163;-45
2023/08/19 20:14:27;;;;;;;4.00;2.13;;;22.80;99.90;;;;;;6186309;23;20173;-44
2023/08/19 20:17:03;;;;;;;2.63;2.00;;;22.70;99.90;;;;;;6159646;23;20504;-43
2023/08/19 20:19:34;;;;;;;3.83;2.23;;;22.70;99.90;;;;;;6150303;23;20179;-42
2023/08/19 20:22:05;;;;;;;3.60;2.53;;;22.60;99.90;;;;;;6185821;23;20157;-43
2023/08/19 20:24:36;;;;;;;2.60;2.30;;;22.50;99.90;;;;;;6159399;23;20203;-44
2023/08/19 20:27:03;;;;;;;7.53;2.37;;;22.40;99.90;;;;;;6159869;23;20176;-43
2023/08/19 20:29:34;;;;;;;3.73;2.53;;;22.30;99.90;;;;;;6159607;23;20218;-43
2023/08/19 20:32:05;;;;;;;4.07;2.03;;;22.20;99.90;;;;;;6185842;23;20641;-43
2023/08/19 20:34:30;;;;;;;3.43;2.30;;;22.20;99.90;;;;;;6159623;23;20525;-47
2023/08/19 20:36:56;;;;;;;3.30;2.20;;;22.10;99.90;;;;;;6159696;23;20161;-48
2023/08/19 20:39:21;;;;;;;3.27;2.30;;;22.10;99.90;;;;;;6186370;23;20527;-48
2023/08/19 20:41:47;;;;;;;4.77;2.50;;;22.00;99.90;;;;;;6159404;23;20621;-48
2023/08/19 20:44:14;;;;;;;4.90;2.40;;;22.00;99.90;;;;;;6185696;23;20173;-48
2023/08/19 20:46:41;;;;;;;3.57;2.70;;;21.90;99.90;;;;;;6187117;23;20220;-47
2023/08/19 20:49:09;;;;;;;4.20;2.33;;;21.90;99.90;;;;;;6161489;23;20240;-47
2023/08/19 20:51:34;;;;;;;3.57;2.40;;;21.80;99.90;;;;;;6162305;23;20165;-47
2023/08/19 20:54:00;;;;;;;3.20;2.37;;;21.70;99.90;;;;;;6161465;23;20169;-47
2023/08/19 20:56:26;;;;;;;3.43;2.20;;;21.70;99.90;;;;;;6187933;23;20227;-48
2023/08/19 20:58:52;;;;;;;2.80;2.20;;;21.60;99.90;;;;;;6187693;23;20595;-47
2023/08/19 21:01:18;;;;;;;4.60;2.93;;;21.50;99.90;;;;;;6187783;23;20156;-47
2023/08/19 21:03:43;;;;;;;5.10;2.53;;;21.50;99.90;;;;;;6187788;23;20157;-47
2023/08/19 21:06:09;;;;;;;5.17;2.50;;;21.40;99.90;;;;;;6161221;23;20307;-46
2023/08/19 21:08:35;;;;;;;3.87;2.30;;;21.40;99.90;;;;;;6161491;23;20157;-47
2023/08/19 21:11:02;;;;;;;2.37;2.17;;;21.30;99.90;;;;;;6188035;23;20489;-47
2023/08/19 21:13:27;;;;;;;3.90;2.50;;;21.30;99.90;;;;;;6188058;23;20504;-48
2023/08/19 21:15:53;;;;;;;5.23;3.00;;;21.20;99.90;;;;;;6161177;23;20251;-48
2023/08/19 21:18:20;;;;;;;2.70;2.50;;;21.20;99.90;;;;;;6188053;23;20598;-47
2023/08/19 21:20:46;;;;;;;2.83;2.43;;;21.10;99.90;;;;;;6187977;23;20153;-47
2023/08/19 21:23:12;;;;;;;4.33;2.67;;;21.00;99.90;;;;;;6161326;23;20165;-47
2023/08/19 21:25:37;;;;;;;3.47;2.60;;;21.00;99.90;;;;;;6187390;23;20196;-47
2023/08/19 21:28:03;;;;;;;5.33;2.80;;;20.90;99.90;;;;;;6161115;23;20591;-46
2023/08/19 21:30:29;;;;;;;5.50;2.53;;;20.90;99.90;;;;;;6161083;23;20215;-48
2023/08/19 21:32:55;;;;;;;2.93;2.73;;;20.90;99.90;;;;;;6161112;23;20164;-48
2023/08/19 21:35:21;;;;;;;4.87;3.20;;;20.80;99.90;;;;;;6160914;23;20200;-48
2023/08/19 21:37:48;;;;;;;3.37;2.87;;;20.70;99.90;;;;;;6187706;23;20227;-48
2023/08/19 21:40:14;;;;;;;7.57;3.00;;;20.70;99.90;;;;;;6161217;23;20164;-48
2023/08/19 21:42:42;;;;;;;3.73;3.00;;;20.60;99.90;;;;;;6187373;23;20176;-48
2023/08/19 21:45:08;;;;;;;8.50;2.83;;;20.60;99.90;;;;;;6160825;23;20200;-46
2023/08/19 21:47:34;;;;;;;4.23;2.93;;;20.60;99.90;;;;;;6187274;23;20634;-47
2023/08/19 21:50:00;;;;;;;2.97;2.67;;;20.50;99.90;;;;;;6187762;23;20149;-48
2023/08/19 21:52:26;;;;;;;3.97;2.90;;;20.50;99.90;;;;;;6187546;23;20153;-47
2023/08/19 21:54:51;;;;;;;4.27;2.90;;;20.50;99.90;;;;;;6187142;23;20243;-47
2023/08/19 21:57:17;;;;;;;3.53;3.00;;;20.40;99.90;;;;;;6187286;23;20215;-47
2023/08/19 21:59:43;;;;;;;3.53;3.20;;;20.40;99.90;;;;;;6187397;23;20169;-48
2023/08/19 22:02:09;;;;;;;3.57;2.67;;;20.30;99.90;;;;;;6187207;23;20165;-48
2023/08/19 22:04:36;;;;;;;3.57;2.93;;;20.30;99.90;;;;;;6160556;23;20197;-47
2023/08/19 22:07:02;;;;;;;4.77;2.90;;;20.20;99.90;;;;;;6187031;23;20465;-47
2023/08/19 22:09:27;;;;;;;3.53;3.23;;;20.30;99.90;;;;;;6160740;23;20232;-48
2023/08/19 22:11:55;;;;;;;4.50;3.40;;;20.20;99.90;;;;;;6187775;23;20243;-48
2023/08/19 22:14:21;;;;;;;6.10;3.30;;;20.10;99.90;;;;;;6187028;23;20210;-48
2023/08/19 22:16:47;;;;;;;4.10;2.83;;;20.10;99.90;;;;;;6161069;23;20164;-48
2023/08/19 22:19:13;;;;;;;4.93;2.80;;;20.00;99.90;;;;;;6187416;23;20157;-47
2023/08/19 22:21:44;;;;;;;3.20;2.73;;;20.00;99.90;;;;;;6161600;23;20179;-48
2023/08/19 22:27:48;;;;;;;3.23;2.70;;;20.00;99.90;;;;;;6068828;23;20167;-44
2023/08/19 22:44:42;;;;;;;6.03;2.43;;;19.70;99.90;;;;;;6070333;23;20680;-50
2023/08/19 22:50:53;;;;;;;3.50;2.20;;;19.60;99.90;;;;;;6089823;23;20164;-43
2023/08/19 22:53:19;;;;;;;4.70;2.87;;;19.50;99.90;;;;;;6163311;23;20166;-49
2023/08/19 22:55:53;;;;;;;6.60;2.90;;;19.40;99.90;;;;;;6188086;23;20596;-42
2023/08/19 22:58:19;;;;;;;5.20;2.83;;;19.40;99.90;;;;;;6161765;23;20199;-48
2023/08/19 23:00:44;;;;;;;4.20;2.70;;;19.40;99.90;;;;;;6186762;23;20591;-48
2023/08/19 23:03:16;;;;;;;3.53;3.17;;;19.40;99.90;;;;;;6188131;23;20191;-48
2023/08/19 23:09:05;;;;;;;5.77;3.20;;;19.30;99.90;;;;;;6187600;23;20152;-47
2023/08/19 23:12:21;;;;;;;3.80;3.40;;;19.30;99.90;;;;;;6188137;23;20153;-43
2023/08/19 23:18:09;;;;;;;3.87;3.13;;;19.20;99.90;;;;;;6188297;23;20473;-43
2023/08/19 23:24:10;;;;;;;3.13;2.70;;;19.20;99.90;;;;;;6187558;23;20622;-48
2023/08/19 23:27:16;;;;;;;5.60;3.10;;;19.10;99.90;;;;;;6161700;23;20148;-49
2023/08/19 23:33:05;;;;;;;4.17;2.93;;;19.10;99.90;;;;;;6187558;23;20144;-44
2023/08/19 23:36:23;;;;;;;4.20;3.47;;;19.10;99.90;;;;;;6187458;23;20204;-49
2023/08/19 23:38:53;;;;;;;4.93;3.50;;;19.00;99.90;;;;;;6187259;23;20153;-47
2023/08/19 23:42:12;;;;;;;6.80;3.37;;;18.90;99.90;;;;;;6187055;23;20215;-44
2023/08/19 23:44:44;;;;;;;6.07;4.10;;;18.90;99.90;;;;;;6186722;23;20188;-44
2023/08/19 23:50:32;;;;;;;13.10;5.67;;;18.90;99.90;;;;;;6188009;23;20183;-44
2023/08/19 23:53:12;;;;;;;9.93;5.57;;;18.90;99.90;;;;;;6187431;23;20161;-48
2023/08/19 23:55:42;;;;;;;12.23;5.33;;;18.90;99.90;;;;;;6136724;23;20200;-48
2023/08/19 23:58:33;;;;;;;8.07;5.07;;;18.90;99.90;;;;;;6187901;23;20600;-47
